Milwaukee, Wisconsin
Traffic Map
Current Weather Conditions
Milwaukee, Wisconsin
Scattered Clouds
Scattered Clouds
18°
Feels Like: 18°
Wind Chill: 18° Ceiling: Unl
Heat Index: 18° Visibility: 10mi
Dew Point: 17° Wind: 10mph
Humidity: 90% Direction: 30° (NNE)
Pressure: 30.09in Gusts: 0mph
Raw Report DataKMKE 270952Z 03009KT 10SM FEW002 SCT055 SCT120 18/17 A3009 RMK AO2 RAE46 SLP187 P0001 T01830167
Traffic Incident Summary
Active as of:
Severity:
Category:
InformationThere was an issue retrieving the traffic information for this location. Please try a different location or try again shortly.
Advertisements
Track Severe Weather on mobile